Weather at Limpopo Valley Airport

Public forecast

Using degrees Celsius for public forecast. Weather courtesy of forecast.io.

Closest aviation weather report (METAR) to Limpopo Valley Airport

Report is more than 6 hours old.

Closest report is Alldays Airport, 29.7 nm (55.0 km) S. Retrieved 2016/08/17 12:00 UTC (5 years ago):

FAAL 171200Z 16009KT 100V230 9999 SCT020 28/19 Q1021

Closest aviation forecast (TAF) to Limpopo Valley Airport

Forecast is more than 12 hours old.

Closest forecast is Makhado Air Force Base Airport, 66.3 nm (122.7 km) SSE. Retrieved 2017/06/05 04:55 UTC (5 years ago):

TAF FALM 050300Z 0504/0515 15005KT CAVOK BECMG 0506/0508 09009KT TX23/0513ZTN06/0504Z